sensor_id;sensor_type;location;lat;lon;timestamp;P1;durP1;ratioP1;P2;durP2;ratioP2
68275;SDS011;55106;51.438;-0.098;2022-08-19T00:00:29;6.18;;;2.72;;
68275;SDS011;55106;51.438;-0.098;2022-08-19T00:02:54;6.00;;;2.33;;
68275;SDS011;55106;51.438;-0.098;2022-08-19T00:05:21;5.75;;;2.35;;
68275;SDS011;55106;51.438;-0.098;2022-08-19T00:07:47;8.03;;;2.60;;
68275;SDS011;55106;51.438;-0.098;2022-08-19T00:10:14;7.45;;;3.45;;
68275;SDS011;55106;51.438;-0.098;2022-08-19T00:12:41;8.35;;;2.85;;
68275;SDS011;55106;51.438;-0.098;2022-08-19T00:15:08;6.57;;;2.42;;
68275;SDS011;55106;51.438;-0.098;2022-08-19T00:17:37;5.95;;;2.28;;
68275;SDS011;55106;51.438;-0.098;2022-08-19T00:20:04;7.77;;;2.63;;
68275;SDS011;55106;51.438;-0.098;2022-08-19T00:22:30;8.30;;;2.42;;
68275;SDS011;55106;51.438;-0.098;2022-08-19T00:24:56;7.25;;;2.60;;
68275;SDS011;55106;51.438;-0.098;2022-08-19T00:27:21;6.70;;;2.30;;
68275;SDS011;55106;51.438;-0.098;2022-08-19T00:29:47;5.53;;;2.30;;
68275;SDS011;55106;51.438;-0.098;2022-08-19T00:32:12;6.93;;;2.83;;
68275;SDS011;55106;51.438;-0.098;2022-08-19T00:34:38;6.43;;;2.33;;
68275;SDS011;55106;51.438;-0.098;2022-08-19T00:37:03;7.67;;;2.60;;
68275;SDS011;55106;51.438;-0.098;2022-08-19T00:39:29;6.57;;;2.53;;
68275;SDS011;55106;51.438;-0.098;2022-08-19T00:41:55;6.27;;;2.17;;
68275;SDS011;55106;51.438;-0.098;2022-08-19T00:44:23;7.25;;;2.70;;
68275;SDS011;55106;51.438;-0.098;2022-08-19T00:46:51;7.88;;;2.40;;
68275;SDS011;55106;51.438;-0.098;2022-08-19T00:52:24;6.35;;;2.53;;
68275;SDS011;55106;51.438;-0.098;2022-08-19T00:54:59;6.73;;;2.20;;
68275;SDS011;55106;51.438;-0.098;2022-08-19T00:57:28;5.97;;;2.53;;
68275;SDS011;55106;51.438;-0.098;2022-08-19T00:59:57;7.75;;;2.90;;
68275;SDS011;55106;51.438;-0.098;2022-08-19T01:02:25;6.72;;;2.70;;
68275;SDS011;55106;51.438;-0.098;2022-08-19T01:04:52;5.90;;;2.17;;
68275;SDS011;55106;51.438;-0.098;2022-08-19T01:07:18;6.07;;;2.40;;
68275;SDS011;55106;51.438;-0.098;2022-08-19T01:09:44;8.05;;;2.72;;
68275;SDS011;55106;51.438;-0.098;2022-08-19T01:12:09;6.50;;;2.70;;
68275;SDS011;55106;51.438;-0.098;2022-08-19T01:14:36;7.70;;;2.72;;
68275;SDS011;55106;51.438;-0.098;2022-08-19T01:17:04;8.82;;;2.50;;
68275;SDS011;55106;51.438;-0.098;2022-08-19T01:19:36;7.47;;;2.83;;
68275;SDS011;55106;51.438;-0.098;2022-08-19T01:24:44;6.75;;;2.70;;
68275;SDS011;55106;51.438;-0.098;2022-08-19T01:27:10;7.60;;;2.70;;
68275;SDS011;55106;51.438;-0.098;2022-08-19T01:29:37;6.77;;;2.90;;
68275;SDS011;55106;51.438;-0.098;2022-08-19T01:32:05;7.40;;;3.22;;
68275;SDS011;55106;51.438;-0.098;2022-08-19T01:34:31;5.97;;;2.45;;
68275;SDS011;55106;51.438;-0.098;2022-08-19T01:36:56;6.43;;;2.80;;
68275;SDS011;55106;51.438;-0.098;2022-08-19T01:39:23;8.43;;;2.90;;
68275;SDS011;55106;51.438;-0.098;2022-08-19T01:41:49;7.53;;;2.67;;
68275;SDS011;55106;51.438;-0.098;2022-08-19T01:44:18;8.18;;;2.97;;
68275;SDS011;55106;51.438;-0.098;2022-08-19T01:46:48;7.72;;;2.80;;
68275;SDS011;55106;51.438;-0.098;2022-08-19T01:49:13;9.10;;;3.03;;
68275;SDS011;55106;51.438;-0.098;2022-08-19T01:51:41;8.15;;;3.13;;
68275;SDS011;55106;51.438;-0.098;2022-08-19T01:54:07;5.93;;;2.40;;
68275;SDS011;55106;51.438;-0.098;2022-08-19T01:56:34;6.65;;;2.53;;
68275;SDS011;55106;51.438;-0.098;2022-08-19T01:59:00;8.60;;;2.80;;
68275;SDS011;55106;51.438;-0.098;2022-08-19T02:01:28;5.85;;;2.42;;
68275;SDS011;55106;51.438;-0.098;2022-08-19T02:03:57;7.57;;;2.85;;
68275;SDS011;55106;51.438;-0.098;2022-08-19T02:06:28;8.18;;;2.95;;
68275;SDS011;55106;51.438;-0.098;2022-08-19T02:08:54;5.82;;;2.55;;
68275;SDS011;55106;51.438;-0.098;2022-08-19T02:11:22;7.63;;;3.43;;
68275;SDS011;55106;51.438;-0.098;2022-08-19T02:13:51;5.70;;;2.42;;
68275;SDS011;55106;51.438;-0.098;2022-08-19T02:16:17;7.55;;;3.10;;
68275;SDS011;55106;51.438;-0.098;2022-08-19T02:18:43;7.13;;;2.80;;
68275;SDS011;55106;51.438;-0.098;2022-08-19T02:21:08;9.25;;;2.85;;
68275;SDS011;55106;51.438;-0.098;2022-08-19T02:23:34;6.70;;;2.70;;
68275;SDS011;55106;51.438;-0.098;2022-08-19T02:25:59;7.17;;;3.00;;
68275;SDS011;55106;51.438;-0.098;2022-08-19T02:28:25;8.43;;;3.13;;
68275;SDS011;55106;51.438;-0.098;2022-08-19T02:30:51;7.77;;;2.57;;
68275;SDS011;55106;51.438;-0.098;2022-08-19T02:33:16;6.30;;;2.53;;
68275;SDS011;55106;51.438;-0.098;2022-08-19T02:35:42;7.40;;;2.75;;
68275;SDS011;55106;51.438;-0.098;2022-08-19T02:38:08;6.60;;;3.30;;
68275;SDS011;55106;51.438;-0.098;2022-08-19T02:40:53;6.78;;;2.83;;
68275;SDS011;55106;51.438;-0.098;2022-08-19T02:43:21;6.70;;;2.50;;
68275;SDS011;55106;51.438;-0.098;2022-08-19T02:45:48;6.70;;;2.60;;
68275;SDS011;55106;51.438;-0.098;2022-08-19T02:48:15;6.60;;;2.78;;
68275;SDS011;55106;51.438;-0.098;2022-08-19T02:50:42;7.40;;;2.70;;
68275;SDS011;55106;51.438;-0.098;2022-08-19T02:53:08;6.90;;;2.95;;
68275;SDS011;55106;51.438;-0.098;2022-08-19T02:55:34;7.05;;;2.88;;
68275;SDS011;55106;51.438;-0.098;2022-08-19T02:58:00;6.72;;;2.92;;
68275;SDS011;55106;51.438;-0.098;2022-08-19T03:00:26;8.23;;;2.90;;
68275;SDS011;55106;51.438;-0.098;2022-08-19T03:02:53;6.57;;;2.70;;
68275;SDS011;55106;51.438;-0.098;2022-08-19T03:05:18;8.02;;;2.70;;
68275;SDS011;55106;51.438;-0.098;2022-08-19T03:07:44;8.43;;;2.73;;
68275;SDS011;55106;51.438;-0.098;2022-08-19T03:10:11;9.93;;;3.03;;
68275;SDS011;55106;51.438;-0.098;2022-08-19T03:12:39;8.25;;;2.67;;
68275;SDS011;55106;51.438;-0.098;2022-08-19T03:15:05;7.90;;;3.13;;
68275;SDS011;55106;51.438;-0.098;2022-08-19T03:17:32;6.53;;;2.60;;
68275;SDS011;55106;51.438;-0.098;2022-08-19T03:19:58;6.68;;;2.67;;
68275;SDS011;55106;51.438;-0.098;2022-08-19T03:22:24;7.07;;;2.60;;
68275;SDS011;55106;51.438;-0.098;2022-08-19T03:24:50;7.63;;;2.88;;
68275;SDS011;55106;51.438;-0.098;2022-08-19T03:27:15;9.10;;;2.83;;
68275;SDS011;55106;51.438;-0.098;2022-08-19T03:29:42;6.47;;;2.60;;
68275;SDS011;55106;51.438;-0.098;2022-08-19T03:32:08;7.50;;;2.40;;
68275;SDS011;55106;51.438;-0.098;2022-08-19T03:34:34;7.53;;;2.87;;
68275;SDS011;55106;51.438;-0.098;2022-08-19T03:37:05;7.35;;;2.70;;
68275;SDS011;55106;51.438;-0.098;2022-08-19T03:39:33;7.03;;;2.10;;
68275;SDS011;55106;51.438;-0.098;2022-08-19T03:42:00;6.75;;;2.53;;
68275;SDS011;55106;51.438;-0.098;2022-08-19T03:44:27;6.80;;;2.10;;
68275;SDS011;55106;51.438;-0.098;2022-08-19T03:46:55;9.93;;;2.47;;
68275;SDS011;55106;51.438;-0.098;2022-08-19T03:49:23;6.70;;;1.80;;
68275;SDS011;55106;51.438;-0.098;2022-08-19T03:51:52;6.68;;;2.10;;
68275;SDS011;55106;51.438;-0.098;2022-08-19T03:54:19;7.30;;;2.30;;
68275;SDS011;55106;51.438;-0.098;2022-08-19T03:56:48;6.90;;;2.17;;
68275;SDS011;55106;51.438;-0.098;2022-08-19T03:59:16;8.25;;;2.90;;
68275;SDS011;55106;51.438;-0.098;2022-08-19T04:01:45;9.25;;;2.67;;
68275;SDS011;55106;51.438;-0.098;2022-08-19T04:04:11;6.32;;;2.40;;
68275;SDS011;55106;51.438;-0.098;2022-08-19T04:06:37;7.83;;;2.57;;
68275;SDS011;55106;51.438;-0.098;2022-08-19T04:09:05;7.80;;;2.60;;
68275;SDS011;55106;51.438;-0.098;2022-08-19T04:11:36;7.10;;;2.70;;
68275;SDS011;55106;51.438;-0.098;2022-08-19T04:14:10;7.72;;;2.80;;
68275;SDS011;55106;51.438;-0.098;2022-08-19T04:16:37;7.73;;;3.00;;
68275;SDS011;55106;51.438;-0.098;2022-08-19T04:19:03;6.97;;;3.05;;
68275;SDS011;55106;51.438;-0.098;2022-08-19T04:21:30;9.45;;;3.30;;
68275;SDS011;55106;51.438;-0.098;2022-08-19T04:23:56;6.27;;;2.70;;
68275;SDS011;55106;51.438;-0.098;2022-08-19T04:26:29;7.75;;;2.75;;
68275;SDS011;55106;51.438;-0.098;2022-08-19T04:29:00;7.78;;;2.67;;
68275;SDS011;55106;51.438;-0.098;2022-08-19T04:31:29;7.53;;;3.25;;
68275;SDS011;55106;51.438;-0.098;2022-08-19T04:33:56;9.80;;;3.43;;
68275;SDS011;55106;51.438;-0.098;2022-08-19T04:36:25;10.52;;;3.42;;
68275;SDS011;55106;51.438;-0.098;2022-08-19T04:38:54;9.10;;;3.35;;
68275;SDS011;55106;51.438;-0.098;2022-08-19T04:41:21;8.30;;;3.03;;
68275;SDS011;55106;51.438;-0.098;2022-08-19T04:44:05;7.68;;;2.97;;
68275;SDS011;55106;51.438;-0.098;2022-08-19T04:46:31;6.27;;;2.90;;
68275;SDS011;55106;51.438;-0.098;2022-08-19T04:48:56;6.80;;;3.17;;
68275;SDS011;55106;51.438;-0.098;2022-08-19T04:51:26;8.07;;;3.03;;
68275;SDS011;55106;51.438;-0.098;2022-08-19T04:53:52;9.85;;;2.95;;
68275;SDS011;55106;51.438;-0.098;2022-08-19T04:56:18;7.67;;;2.90;;
68275;SDS011;55106;51.438;-0.098;2022-08-19T04:58:45;7.40;;;3.00;;
68275;SDS011;55106;51.438;-0.098;2022-08-19T05:01:13;9.00;;;2.95;;
68275;SDS011;55106;51.438;-0.098;2022-08-19T05:03:42;8.48;;;3.45;;
68275;SDS011;55106;51.438;-0.098;2022-08-19T05:06:09;6.93;;;3.17;;
68275;SDS011;55106;51.438;-0.098;2022-08-19T05:08:36;8.50;;;3.22;;
68275;SDS011;55106;51.438;-0.098;2022-08-19T05:11:09;7.57;;;3.20;;
68275;SDS011;55106;51.438;-0.098;2022-08-19T05:13:40;8.27;;;3.15;;
68275;SDS011;55106;51.438;-0.098;2022-08-19T05:16:07;10.50;;;3.63;;
68275;SDS011;55106;51.438;-0.098;2022-08-19T05:18:32;7.23;;;3.13;;
68275;SDS011;55106;51.438;-0.098;2022-08-19T05:21:17;7.35;;;3.60;;
68275;SDS011;55106;51.438;-0.098;2022-08-19T05:24:03;10.20;;;3.80;;
68275;SDS011;55106;51.438;-0.098;2022-08-19T05:26:33;8.35;;;3.70;;
68275;SDS011;55106;51.438;-0.098;2022-08-19T05:28:59;8.03;;;3.30;;
68275;SDS011;55106;51.438;-0.098;2022-08-19T05:31:25;9.73;;;3.20;;
68275;SDS011;55106;51.438;-0.098;2022-08-19T05:33:50;10.97;;;3.37;;
68275;SDS011;55106;51.438;-0.098;2022-08-19T05:36:16;7.93;;;2.53;;
68275;SDS011;55106;51.438;-0.098;2022-08-19T05:38:41;6.63;;;2.88;;
68275;SDS011;55106;51.438;-0.098;2022-08-19T05:41:08;9.53;;;2.80;;
68275;SDS011;55106;51.438;-0.098;2022-08-19T05:43:35;6.47;;;2.67;;
68275;SDS011;55106;51.438;-0.098;2022-08-19T05:46:02;6.40;;;2.30;;
68275;SDS011;55106;51.438;-0.098;2022-08-19T05:48:29;6.22;;;2.08;;
68275;SDS011;55106;51.438;-0.098;2022-08-19T05:50:55;5.53;;;2.50;;
68275;SDS011;55106;51.438;-0.098;2022-08-19T05:53:21;6.10;;;2.00;;
68275;SDS011;55106;51.438;-0.098;2022-08-19T05:55:47;5.53;;;2.20;;
68275;SDS011;55106;51.438;-0.098;2022-08-19T05:58:12;4.77;;;1.90;;
68275;SDS011;55106;51.438;-0.098;2022-08-19T06:00:38;5.53;;;1.87;;
68275;SDS011;55106;51.438;-0.098;2022-08-19T06:03:05;5.60;;;1.70;;
68275;SDS011;55106;51.438;-0.098;2022-08-19T06:05:31;6.65;;;1.90;;
68275;SDS011;55106;51.438;-0.098;2022-08-19T06:07:57;6.38;;;1.75;;
68275;SDS011;55106;51.438;-0.098;2022-08-19T06:10:23;4.50;;;1.60;;
68275;SDS011;55106;51.438;-0.098;2022-08-19T06:12:51;4.53;;;1.52;;
68275;SDS011;55106;51.438;-0.098;2022-08-19T06:15:17;5.43;;;1.70;;
68275;SDS011;55106;51.438;-0.098;2022-08-19T06:17:42;4.30;;;1.40;;
68275;SDS011;55106;51.438;-0.098;2022-08-19T06:20:10;4.00;;;1.40;;
68275;SDS011;55106;51.438;-0.098;2022-08-19T06:22:41;4.25;;;1.40;;
68275;SDS011;55106;51.438;-0.098;2022-08-19T06:25:09;4.68;;;1.70;;
68275;SDS011;55106;51.438;-0.098;2022-08-19T06:27:35;4.73;;;1.50;;
68275;SDS011;55106;51.438;-0.098;2022-08-19T06:30:02;4.88;;;1.35;;
68275;SDS011;55106;51.438;-0.098;2022-08-19T06:32:28;5.15;;;1.55;;
68275;SDS011;55106;51.438;-0.098;2022-08-19T06:34:53;4.10;;;1.60;;
68275;SDS011;55106;51.438;-0.098;2022-08-19T06:37:19;4.00;;;1.27;;
68275;SDS011;55106;51.438;-0.098;2022-08-19T06:39:46;3.85;;;1.33;;
68275;SDS011;55106;51.438;-0.098;2022-08-19T06:42:12;5.60;;;1.30;;
68275;SDS011;55106;51.438;-0.098;2022-08-19T06:44:41;4.43;;;1.67;;
68275;SDS011;55106;51.438;-0.098;2022-08-19T06:47:10;4.95;;;1.50;;
68275;SDS011;55106;51.438;-0.098;2022-08-19T06:49:37;4.13;;;1.27;;
68275;SDS011;55106;51.438;-0.098;2022-08-19T06:52:03;3.80;;;1.17;;
68275;SDS011;55106;51.438;-0.098;2022-08-19T06:54:29;4.57;;;1.33;;
68275;SDS011;55106;51.438;-0.098;2022-08-19T06:56:55;5.07;;;1.50;;
68275;SDS011;55106;51.438;-0.098;2022-08-19T06:59:22;4.65;;;1.35;;
68275;SDS011;55106;51.438;-0.098;2022-08-19T07:01:53;5.10;;;1.38;;
68275;SDS011;55106;51.438;-0.098;2022-08-19T07:04:22;4.37;;;1.40;;
68275;SDS011;55106;51.438;-0.098;2022-08-19T07:06:49;4.60;;;1.33;;
68275;SDS011;55106;51.438;-0.098;2022-08-19T07:09:21;5.40;;;2.15;;
68275;SDS011;55106;51.438;-0.098;2022-08-19T07:11:47;4.10;;;1.30;;
68275;SDS011;55106;51.438;-0.098;2022-08-19T07:14:15;4.03;;;1.10;;
68275;SDS011;55106;51.438;-0.098;2022-08-19T07:16:43;5.15;;;1.40;;
68275;SDS011;55106;51.438;-0.098;2022-08-19T07:19:10;4.65;;;1.50;;
68275;SDS011;55106;51.438;-0.098;2022-08-19T07:21:37;5.38;;;1.13;;
68275;SDS011;55106;51.438;-0.098;2022-08-19T07:24:03;5.70;;;1.53;;
68275;SDS011;55106;51.438;-0.098;2022-08-19T07:26:32;3.55;;;1.48;;
68275;SDS011;55106;51.438;-0.098;2022-08-19T07:29:03;6.32;;;1.52;;
68275;SDS011;55106;51.438;-0.098;2022-08-19T07:31:29;4.10;;;1.60;;
68275;SDS011;55106;51.438;-0.098;2022-08-19T07:33:55;3.97;;;1.30;;
68275;SDS011;55106;51.438;-0.098;2022-08-19T07:36:23;4.03;;;1.38;;
68275;SDS011;55106;51.438;-0.098;2022-08-19T07:38:57;4.10;;;1.30;;
68275;SDS011;55106;51.438;-0.098;2022-08-19T07:41:25;4.10;;;1.38;;
68275;SDS011;55106;51.438;-0.098;2022-08-19T07:43:56;4.10;;;1.10;;
68275;SDS011;55106;51.438;-0.098;2022-08-19T07:46:22;4.22;;;1.38;;
68275;SDS011;55106;51.438;-0.098;2022-08-19T07:48:49;4.73;;;1.50;;
68275;SDS011;55106;51.438;-0.098;2022-08-19T07:51:19;3.78;;;1.10;;
68275;SDS011;55106;51.438;-0.098;2022-08-19T07:53:49;4.22;;;1.05;;
68275;SDS011;55106;51.438;-0.098;2022-08-19T07:56:18;3.83;;;1.00;;
68275;SDS011;55106;51.438;-0.098;2022-08-19T07:58:45;5.82;;;1.15;;
68275;SDS011;55106;51.438;-0.098;2022-08-19T08:01:16;6.28;;;1.20;;
68275;SDS011;55106;51.438;-0.098;2022-08-19T08:03:48;4.65;;;1.00;;
68275;SDS011;55106;51.438;-0.098;2022-08-19T08:06:40;6.35;;;1.13;;
68275;SDS011;55106;51.438;-0.098;2022-08-19T08:09:35;4.43;;;1.07;;
68275;SDS011;55106;51.438;-0.098;2022-08-19T08:14:35;3.55;;;1.08;;
68275;SDS011;55106;51.438;-0.098;2022-08-19T08:17:04;5.78;;;1.20;;
68275;SDS011;55106;51.438;-0.098;2022-08-19T08:19:31;5.10;;;1.25;;
68275;SDS011;55106;51.438;-0.098;2022-08-19T08:21:57;5.27;;;1.20;;
68275;SDS011;55106;51.438;-0.098;2022-08-19T08:24:25;4.30;;;1.10;;
68275;SDS011;55106;51.438;-0.098;2022-08-19T08:26:52;4.47;;;1.52;;
68275;SDS011;55106;51.438;-0.098;2022-08-19T08:29:17;5.50;;;1.00;;
68275;SDS011;55106;51.438;-0.098;2022-08-19T08:31:44;3.63;;;1.00;;
68275;SDS011;55106;51.438;-0.098;2022-08-19T08:34:10;3.88;;;1.15;;
68275;SDS011;55106;51.438;-0.098;2022-08-19T08:36:41;4.30;;;1.30;;
68275;SDS011;55106;51.438;-0.098;2022-08-19T08:39:10;4.75;;;1.20;;
68275;SDS011;55106;51.438;-0.098;2022-08-19T08:44:32;5.45;;;1.75;;
68275;SDS011;55106;51.438;-0.098;2022-08-19T08:47:12;6.43;;;1.30;;
68275;SDS011;55106;51.438;-0.098;2022-08-19T08:52:11;4.22;;;1.20;;
68275;SDS011;55106;51.438;-0.098;2022-08-19T08:54:44;4.38;;;1.20;;
68275;SDS011;55106;51.438;-0.098;2022-08-19T09:00:15;4.85;;;1.10;;
68275;SDS011;55106;51.438;-0.098;2022-08-19T09:02:46;4.90;;;1.20;;
68275;SDS011;55106;51.438;-0.098;2022-08-19T09:05:11;5.22;;;1.20;;
68275;SDS011;55106;51.438;-0.098;2022-08-19T09:10:28;4.13;;;0.88;;
68275;SDS011;55106;51.438;-0.098;2022-08-19T09:16:05;5.93;;;1.20;;
68275;SDS011;55106;51.438;-0.098;2022-08-19T09:21:30;4.53;;;1.08;;
68275;SDS011;55106;51.438;-0.098;2022-08-19T09:23:57;6.93;;;1.52;;
68275;SDS011;55106;51.438;-0.098;2022-08-19T09:26:23;8.30;;;1.30;;
68275;SDS011;55106;51.438;-0.098;2022-08-19T09:28:51;4.63;;;1.00;;
68275;SDS011;55106;51.438;-0.098;2022-08-19T09:31:19;4.90;;;1.17;;
68275;SDS011;55106;51.438;-0.098;2022-08-19T09:33:47;4.82;;;0.90;;
68275;SDS011;55106;51.438;-0.098;2022-08-19T09:36:14;4.78;;;1.20;;
68275;SDS011;55106;51.438;-0.098;2022-08-19T09:38:42;5.03;;;0.97;;
68275;SDS011;55106;51.438;-0.098;2022-08-19T09:41:08;3.28;;;1.00;;
68275;SDS011;55106;51.438;-0.098;2022-08-19T09:43:38;3.63;;;1.20;;
68275;SDS011;55106;51.438;-0.098;2022-08-19T09:46:05;6.72;;;1.35;;
68275;SDS011;55106;51.438;-0.098;2022-08-19T09:48:32;4.85;;;1.17;;
68275;SDS011;55106;51.438;-0.098;2022-08-19T09:51:05;4.93;;;1.00;;
68275;SDS011;55106;51.438;-0.098;2022-08-19T09:53:37;6.05;;;1.25;;
68275;SDS011;55106;51.438;-0.098;2022-08-19T09:56:04;5.15;;;1.10;;
68275;SDS011;55106;51.438;-0.098;2022-08-19T09:58:30;4.63;;;0.98;;
68275;SDS011;55106;51.438;-0.098;2022-08-19T10:00:59;4.88;;;1.27;;
68275;SDS011;55106;51.438;-0.098;2022-08-19T10:03:26;4.73;;;1.00;;
68275;SDS011;55106;51.438;-0.098;2022-08-19T10:05:53;5.10;;;0.95;;
68275;SDS011;55106;51.438;-0.098;2022-08-19T10:08:23;5.40;;;1.05;;
68275;SDS011;55106;51.438;-0.098;2022-08-19T10:10:51;6.00;;;1.35;;
68275;SDS011;55106;51.438;-0.098;2022-08-19T10:13:18;5.88;;;1.30;;
68275;SDS011;55106;51.438;-0.098;2022-08-19T10:15:47;4.07;;;0.97;;
68275;SDS011;55106;51.438;-0.098;2022-08-19T10:18:16;5.55;;;1.15;;
68275;SDS011;55106;51.438;-0.098;2022-08-19T10:20:42;6.75;;;1.63;;
68275;SDS011;55106;51.438;-0.098;2022-08-19T10:23:10;7.60;;;1.80;;
68275;SDS011;55106;51.438;-0.098;2022-08-19T10:25:36;6.53;;;1.73;;
68275;SDS011;55106;51.438;-0.098;2022-08-19T10:28:02;6.53;;;1.60;;
68275;SDS011;55106;51.438;-0.098;2022-08-19T10:30:28;7.82;;;1.42;;
68275;SDS011;55106;51.438;-0.098;2022-08-19T10:32:53;7.97;;;1.70;;
68275;SDS011;55106;51.438;-0.098;2022-08-19T10:35:19;8.27;;;1.70;;
68275;SDS011;55106;51.438;-0.098;2022-08-19T10:37:45;6.40;;;1.37;;
68275;SDS011;55106;51.438;-0.098;2022-08-19T10:40:10;8.13;;;1.50;;
68275;SDS011;55106;51.438;-0.098;2022-08-19T10:42:36;8.40;;;1.40;;
68275;SDS011;55106;51.438;-0.098;2022-08-19T10:45:03;6.78;;;1.35;;
68275;SDS011;55106;51.438;-0.098;2022-08-19T10:47:31;6.78;;;1.42;;
68275;SDS011;55106;51.438;-0.098;2022-08-19T10:49:57;5.67;;;1.60;;
68275;SDS011;55106;51.438;-0.098;2022-08-19T10:52:42;7.63;;;1.95;;
68275;SDS011;55106;51.438;-0.098;2022-08-19T10:55:10;6.95;;;1.83;;
68275;SDS011;55106;51.438;-0.098;2022-08-19T10:57:54;7.32;;;1.70;;
68275;SDS011;55106;51.438;-0.098;2022-08-19T11:00:20;6.60;;;1.47;;
68275;SDS011;55106;51.438;-0.098;2022-08-19T11:02:47;8.32;;;1.67;;
68275;SDS011;55106;51.438;-0.098;2022-08-19T11:05:12;7.40;;;1.73;;
68275;SDS011;55106;51.438;-0.098;2022-08-19T11:07:39;9.43;;;2.25;;
68275;SDS011;55106;51.438;-0.098;2022-08-19T11:10:06;5.30;;;1.30;;
68275;SDS011;55106;51.438;-0.098;2022-08-19T11:12:33;8.80;;;1.70;;
68275;SDS011;55106;51.438;-0.098;2022-08-19T11:15:01;7.60;;;1.50;;
68275;SDS011;55106;51.438;-0.098;2022-08-19T11:17:27;7.78;;;2.13;;
68275;SDS011;55106;51.438;-0.098;2022-08-19T11:19:52;8.87;;;1.93;;
68275;SDS011;55106;51.438;-0.098;2022-08-19T11:22:18;5.47;;;1.98;;
68275;SDS011;55106;51.438;-0.098;2022-08-19T11:24:43;7.73;;;2.00;;
68275;SDS011;55106;51.438;-0.098;2022-08-19T11:27:09;7.68;;;2.10;;
68275;SDS011;55106;51.438;-0.098;2022-08-19T11:29:37;6.37;;;2.10;;
68275;SDS011;55106;51.438;-0.098;2022-08-19T11:32:07;8.07;;;2.10;;
68275;SDS011;55106;51.438;-0.098;2022-08-19T11:34:34;8.55;;;2.20;;
68275;SDS011;55106;51.438;-0.098;2022-08-19T11:37:01;7.80;;;2.10;;
68275;SDS011;55106;51.438;-0.098;2022-08-19T11:39:28;9.75;;;2.05;;
68275;SDS011;55106;51.438;-0.098;2022-08-19T11:41:57;8.77;;;2.00;;
68275;SDS011;55106;51.438;-0.098;2022-08-19T11:44:23;9.25;;;2.00;;
68275;SDS011;55106;51.438;-0.098;2022-08-19T11:46:50;7.22;;;1.75;;
68275;SDS011;55106;51.438;-0.098;2022-08-19T11:49:17;8.57;;;2.10;;
68275;SDS011;55106;51.438;-0.098;2022-08-19T11:51:44;8.93;;;2.00;;
68275;SDS011;55106;51.438;-0.098;2022-08-19T11:54:11;6.87;;;2.10;;
68275;SDS011;55106;51.438;-0.098;2022-08-19T11:56:38;8.18;;;1.88;;
68275;SDS011;55106;51.438;-0.098;2022-08-19T11:59:04;7.15;;;2.03;;
68275;SDS011;55106;51.438;-0.098;2022-08-19T12:01:30;8.00;;;1.88;;
68275;SDS011;55106;51.438;-0.098;2022-08-19T12:03:56;8.63;;;1.90;;
68275;SDS011;55106;51.438;-0.098;2022-08-19T12:06:25;7.20;;;1.95;;
68275;SDS011;55106;51.438;-0.098;2022-08-19T12:09:04;7.82;;;1.90;;
68275;SDS011;55106;51.438;-0.098;2022-08-19T12:11:32;10.02;;;1.95;;
68275;SDS011;55106;51.438;-0.098;2022-08-19T12:13:57;7.90;;;1.77;;
68275;SDS011;55106;51.438;-0.098;2022-08-19T12:16:24;7.40;;;1.90;;
68275;SDS011;55106;51.438;-0.098;2022-08-19T12:18:52;8.43;;;2.20;;
68275;SDS011;55106;51.438;-0.098;2022-08-19T12:21:20;8.43;;;1.80;;
68275;SDS011;55106;51.438;-0.098;2022-08-19T12:23:48;7.50;;;1.55;;
68275;SDS011;55106;51.438;-0.098;2022-08-19T12:26:17;6.40;;;1.70;;
68275;SDS011;55106;51.438;-0.098;2022-08-19T12:28:43;8.90;;;1.80;;
68275;SDS011;55106;51.438;-0.098;2022-08-19T12:31:09;7.47;;;1.65;;
68275;SDS011;55106;51.438;-0.098;2022-08-19T12:33:41;7.75;;;2.10;;
68275;SDS011;55106;51.438;-0.098;2022-08-19T12:36:08;8.37;;;1.90;;
68275;SDS011;55106;51.438;-0.098;2022-08-19T12:38:36;8.32;;;1.80;;
68275;SDS011;55106;51.438;-0.098;2022-08-19T12:41:02;6.70;;;1.83;;
68275;SDS011;55106;51.438;-0.098;2022-08-19T12:43:31;7.38;;;2.03;;
68275;SDS011;55106;51.438;-0.098;2022-08-19T12:45:56;8.00;;;1.80;;
68275;SDS011;55106;51.438;-0.098;2022-08-19T12:48:22;6.97;;;1.80;;
68275;SDS011;55106;51.438;-0.098;2022-08-19T12:50:47;9.20;;;2.10;;
68275;SDS011;55106;51.438;-0.098;2022-08-19T12:53:13;5.97;;;1.70;;
68275;SDS011;55106;51.438;-0.098;2022-08-19T12:55:40;8.32;;;1.92;;
68275;SDS011;55106;51.438;-0.098;2022-08-19T12:58:07;8.30;;;2.17;;
68275;SDS011;55106;51.438;-0.098;2022-08-19T13:00:33;8.77;;;2.27;;
68275;SDS011;55106;51.438;-0.098;2022-08-19T13:02:59;9.05;;;1.95;;
68275;SDS011;55106;51.438;-0.098;2022-08-19T13:05:26;9.55;;;1.85;;
68275;SDS011;55106;51.438;-0.098;2022-08-19T13:07:55;7.18;;;1.60;;
68275;SDS011;55106;51.438;-0.098;2022-08-19T13:10:23;7.70;;;2.00;;
68275;SDS011;55106;51.438;-0.098;2022-08-19T13:12:53;10.07;;;2.00;;
68275;SDS011;55106;51.438;-0.098;2022-08-19T13:15:19;7.55;;;1.73;;
68275;SDS011;55106;51.438;-0.098;2022-08-19T13:17:46;9.57;;;2.05;;
68275;SDS011;55106;51.438;-0.098;2022-08-19T13:20:16;6.47;;;1.65;;
68275;SDS011;55106;51.438;-0.098;2022-08-19T13:22:44;6.60;;;1.70;;
68275;SDS011;55106;51.438;-0.098;2022-08-19T13:25:10;7.28;;;1.70;;
68275;SDS011;55106;51.438;-0.098;2022-08-19T13:27:37;7.55;;;1.75;;
68275;SDS011;55106;51.438;-0.098;2022-08-19T13:30:04;7.50;;;1.65;;
68275;SDS011;55106;51.438;-0.098;2022-08-19T13:32:49;11.35;;;2.15;;
68275;SDS011;55106;51.438;-0.098;2022-08-19T13:35:33;6.93;;;1.80;;
68275;SDS011;55106;51.438;-0.098;2022-08-19T13:37:59;8.98;;;1.75;;
68275;SDS011;55106;51.438;-0.098;2022-08-19T13:40:25;8.90;;;1.75;;
68275;SDS011;55106;51.438;-0.098;2022-08-19T13:42:52;9.47;;;2.07;;
68275;SDS011;55106;51.438;-0.098;2022-08-19T13:45:20;7.95;;;2.08;;
68275;SDS011;55106;51.438;-0.098;2022-08-19T13:47:51;8.35;;;2.10;;
68275;SDS011;55106;51.438;-0.098;2022-08-19T13:50:23;9.20;;;1.98;;
68275;SDS011;55106;51.438;-0.098;2022-08-19T13:52:51;8.05;;;1.75;;
68275;SDS011;55106;51.438;-0.098;2022-08-19T13:55:18;7.17;;;1.97;;
68275;SDS011;55106;51.438;-0.098;2022-08-19T13:57:43;9.18;;;1.98;;
68275;SDS011;55106;51.438;-0.098;2022-08-19T14:00:14;10.25;;;2.25;;
68275;SDS011;55106;51.438;-0.098;2022-08-19T14:02:43;8.43;;;2.20;;
68275;SDS011;55106;51.438;-0.098;2022-08-19T14:05:11;7.67;;;1.90;;
68275;SDS011;55106;51.438;-0.098;2022-08-19T14:07:39;7.30;;;2.03;;
68275;SDS011;55106;51.438;-0.098;2022-08-19T14:10:06;6.28;;;1.63;;
68275;SDS011;55106;51.438;-0.098;2022-08-19T14:12:36;7.20;;;1.75;;
68275;SDS011;55106;51.438;-0.098;2022-08-19T14:15:02;8.07;;;1.48;;
68275;SDS011;55106;51.438;-0.098;2022-08-19T14:17:28;6.63;;;1.73;;
68275;SDS011;55106;51.438;-0.098;2022-08-19T14:19:58;8.93;;;2.10;;
68275;SDS011;55106;51.438;-0.098;2022-08-19T14:22:25;7.35;;;2.10;;
68275;SDS011;55106;51.438;-0.098;2022-08-19T14:24:50;10.87;;;2.17;;
68275;SDS011;55106;51.438;-0.098;2022-08-19T14:27:16;6.63;;;1.80;;
68275;SDS011;55106;51.438;-0.098;2022-08-19T14:29:41;6.13;;;1.90;;
68275;SDS011;55106;51.438;-0.098;2022-08-19T14:32:07;7.68;;;1.67;;
68275;SDS011;55106;51.438;-0.098;2022-08-19T14:34:32;8.77;;;1.50;;
68275;SDS011;55106;51.438;-0.098;2022-08-19T14:36:58;6.72;;;1.20;;
68275;SDS011;55106;51.438;-0.098;2022-08-19T14:39:24;8.87;;;1.83;;
68275;SDS011;55106;51.438;-0.098;2022-08-19T14:41:49;7.47;;;1.40;;
68275;SDS011;55106;51.438;-0.098;2022-08-19T14:44:15;7.43;;;1.63;;
68275;SDS011;55106;51.438;-0.098;2022-08-19T14:46:41;7.50;;;1.30;;
68275;SDS011;55106;51.438;-0.098;2022-08-19T14:49:06;8.75;;;1.95;;
68275;SDS011;55106;51.438;-0.098;2022-08-19T14:51:32;9.02;;;1.75;;
68275;SDS011;55106;51.438;-0.098;2022-08-19T14:53:58;8.13;;;1.73;;
68275;SDS011;55106;51.438;-0.098;2022-08-19T14:56:25;9.77;;;2.15;;
68275;SDS011;55106;51.438;-0.098;2022-08-19T14:58:52;6.60;;;1.70;;
68275;SDS011;55106;51.438;-0.098;2022-08-19T15:01:18;10.67;;;2.37;;